sensor_id;sensor_type;location;lat;lon;timestamp;pressure;altitude;pressure_sealevel;temperature;humidity
31225;BME280;17847;31.524;74.366;2023-02-01T00:02:04;99326.81;;;10.93;66.15
31225;BME280;17847;31.524;74.366;2023-02-01T00:04:46;99329.28;;;10.95;66.60
31225;BME280;17847;31.524;74.366;2023-02-01T00:07:36;99333.75;;;10.94;66.83
31225;BME280;17847;31.524;74.366;2023-02-01T00:10:18;99325.28;;;10.99;65.88
31225;BME280;17847;31.524;74.366;2023-02-01T00:13:07;99321.25;;;10.88;65.67
31225;BME280;17847;31.524;74.366;2023-02-01T00:15:49;99326.19;;;10.91;65.83
31225;BME280;17847;31.524;74.366;2023-02-01T00:18:38;99324.44;;;10.98;65.84
31225;BME280;17847;31.524;74.366;2023-02-01T00:21:28;99328.31;;;10.96;65.66
31225;BME280;17847;31.524;74.366;2023-02-01T00:24:24;99323.16;;;10.79;65.75
31225;BME280;17847;31.524;74.366;2023-02-01T00:27:06;99326.72;;;10.87;66.21
31225;BME280;17847;31.524;74.366;2023-02-01T00:30:06;99319.06;;;10.92;66.10
31225;BME280;17847;31.524;74.366;2023-02-01T00:32:42;99329.28;;;10.95;65.15
31225;BME280;17847;31.524;74.366;2023-02-01T00:35:38;99325.91;;;10.86;65.54
31225;BME280;17847;31.524;74.366;2023-02-01T00:38:20;99319.53;;;10.95;65.41
31225;BME280;17847;31.524;74.366;2023-02-01T00:41:18;99321.06;;;10.90;65.97
31225;BME280;17847;31.524;74.366;2023-02-01T00:44:01;99317.31;;;10.84;66.06
31225;BME280;17847;31.524;74.366;2023-02-01T00:46:51;99314.84;;;10.82;65.99
31225;BME280;17847;31.524;74.366;2023-02-01T00:49:33;99318.31;;;10.83;65.39
31225;BME280;17847;31.524;74.366;2023-02-01T00:52:22;99311.31;;;10.67;66.18
31225;BME280;17847;31.524;74.366;2023-02-01T00:55:04;99317.44;;;10.68;66.59
31225;BME280;17847;31.524;74.366;2023-02-01T00:57:53;99318.69;;;10.57;66.96
31225;BME280;17847;31.524;74.366;2023-02-01T01:00:35;99326.41;;;10.44;67.84
31225;BME280;17847;31.524;74.366;2023-02-01T01:03:24;99327.31;;;10.28;68.11
31225;BME280;17847;31.524;74.366;2023-02-01T01:06:20;99331.88;;;10.43;68.69
31225;BME280;17847;31.524;74.366;2023-02-01T01:09:10;99343.34;;;10.35;68.33
31225;BME280;17847;31.524;74.366;2023-02-01T01:11:52;99346.31;;;10.32;68.75
31225;BME280;17847;31.524;74.366;2023-02-01T01:14:44;99343.72;;;10.24;69.09
31225;BME280;17847;31.524;74.366;2023-02-01T01:17:26;99345.06;;;10.20;69.69
31225;BME280;17847;31.524;74.366;2023-02-01T01:20:22;99343.66;;;10.32;69.55
31225;BME280;17847;31.524;74.366;2023-02-01T01:22:57;99348.56;;;10.12;69.23
31225;BME280;17847;31.524;74.366;2023-02-01T01:25:53;99351.13;;;9.98;69.15
31225;BME280;17847;31.524;74.366;2023-02-01T01:28:28;99354.22;;;10.01;68.90
31225;BME280;17847;31.524;74.366;2023-02-01T01:31:25;99357.97;;;10.15;69.41
31225;BME280;17847;31.524;74.366;2023-02-01T01:34:08;99366.91;;;10.14;69.34
31225;BME280;17847;31.524;74.366;2023-02-01T01:36:57;99357.34;;;10.05;69.12
31225;BME280;17847;31.524;74.366;2023-02-01T01:39:38;99363.13;;;10.16;69.38
31225;BME280;17847;31.524;74.366;2023-02-01T01:42:27;99360.31;;;10.10;69.14
31225;BME280;17847;31.524;74.366;2023-02-01T01:45:05;99366.56;;;10.25;69.62
31225;BME280;17847;31.524;74.366;2023-02-01T01:48:11;99366.66;;;10.31;69.48
31225;BME280;17847;31.524;74.366;2023-02-01T01:51:07;99368.03;;;10.27;69.24
31225;BME280;17847;31.524;74.366;2023-02-01T01:54:04;99373.28;;;10.35;68.54
31225;BME280;17847;31.524;74.366;2023-02-01T01:56:52;99378.53;;;10.44;69.21
31225;BME280;17847;31.524;74.366;2023-02-01T01:59:47;99377.94;;;10.33;68.34
31225;BME280;17847;31.524;74.366;2023-02-01T02:02:44;99383.34;;;10.40;69.36
31225;BME280;17847;31.524;74.366;2023-02-01T02:05:33;99392.28;;;10.39;68.96
31225;BME280;17847;31.524;74.366;2023-02-01T02:08:15;99383.06;;;10.35;68.38
31225;BME280;17847;31.524;74.366;2023-02-01T02:11:04;99391.94;;;10.42;68.68
31225;BME280;17847;31.524;74.366;2023-02-01T02:13:43;99388.94;;;10.45;67.84
31225;BME280;17847;31.524;74.366;2023-02-01T02:26:14;99412.41;;;10.79;65.10
31225;BME280;17847;31.524;74.366;2023-02-01T02:38:41;99418.63;;;11.09;63.80
31225;BME280;17847;31.524;74.366;2023-02-01T02:41:54;99415.06;;;11.02;63.88
31225;BME280;17847;31.524;74.366;2023-02-01T02:51:02;99424.81;;;11.24;62.33
31225;BME280;17847;31.524;74.366;2023-02-01T02:54:19;99427.41;;;11.32;61.88
31225;BME280;17847;31.524;74.366;2023-02-01T02:57:35;99418.53;;;11.40;62.81
31225;BME280;17847;31.524;74.366;2023-02-01T03:00:44;99427.53;;;11.68;61.14
31225;BME280;17847;31.524;74.366;2023-02-01T03:03:47;99415.84;;;11.92;60.56
31225;BME280;17847;31.524;74.366;2023-02-01T03:06:57;99422.81;;;12.07;59.96
31225;BME280;17847;31.524;74.366;2023-02-01T03:09:36;99436.72;;;12.09;58.98
31225;BME280;17847;31.524;74.366;2023-02-01T03:12:36;99438.38;;;12.10;59.05
31225;BME280;17847;31.524;74.366;2023-02-01T03:18:45;99448.59;;;12.43;58.50
31225;BME280;17847;31.524;74.366;2023-02-01T03:21:52;99458.56;;;12.55;58.67
31225;BME280;17847;31.524;74.366;2023-02-01T03:24:45;99462.97;;;12.84;57.39
31225;BME280;17847;31.524;74.366;2023-02-01T03:27:34;99474.13;;;13.86;54.72
31225;BME280;17847;31.524;74.366;2023-02-01T03:30:31;99474.47;;;14.93;51.05
31225;BME280;17847;31.524;74.366;2023-02-01T03:33:18;99475.59;;;15.64;48.95
31225;BME280;17847;31.524;74.366;2023-02-01T03:36:41;99481.84;;;16.35;46.96
31225;BME280;17847;31.524;74.366;2023-02-01T03:39:31;99487.00;;;16.88;46.29
31225;BME280;17847;31.524;74.366;2023-02-01T03:42:30;99494.78;;;17.34;45.36
31225;BME280;17847;31.524;74.366;2023-02-01T03:45:28;99495.81;;;17.64;44.22
31225;BME280;17847;31.524;74.366;2023-02-01T03:48:23;99502.75;;;18.15;43.35
31225;BME280;17847;31.524;74.366;2023-02-01T03:51:08;99508.09;;;18.39;42.48
31225;BME280;17847;31.524;74.366;2023-02-01T03:53:59;99510.78;;;18.76;42.04
31225;BME280;17847;31.524;74.366;2023-02-01T03:56:45;99520.06;;;19.10;40.50
31225;BME280;17847;31.524;74.366;2023-02-01T03:59:41;99517.31;;;19.69;39.41
31225;BME280;17847;31.524;74.366;2023-02-01T04:02:24;99517.94;;;20.18;40.56
31225;BME280;17847;31.524;74.366;2023-02-01T04:05:20;99519.72;;;20.12;37.59
31225;BME280;17847;31.524;74.366;2023-02-01T04:08:06;99520.16;;;20.21;38.06
31225;BME280;17847;31.524;74.366;2023-02-01T04:10:55;99510.38;;;20.78;40.09
31225;BME280;17847;31.524;74.366;2023-02-01T04:13:31;99512.16;;;20.73;36.96
31225;BME280;17847;31.524;74.366;2023-02-01T04:16:27;99510.47;;;20.43;37.22
31225;BME280;17847;31.524;74.366;2023-02-01T04:19:08;99514.06;;;21.00;37.86
31225;BME280;17847;31.524;74.366;2023-02-01T04:21:57;99532.19;;;21.05;36.22
31225;BME280;17847;31.524;74.366;2023-02-01T04:24:52;99544.72;;;21.39;36.23
31225;BME280;17847;31.524;74.366;2023-02-01T04:27:35;99556.72;;;21.32;36.00
31225;BME280;17847;31.524;74.366;2023-02-01T04:30:31;99550.00;;;21.63;34.88
31225;BME280;17847;31.524;74.366;2023-02-01T04:33:12;99559.25;;;21.38;36.26
31225;BME280;17847;31.524;74.366;2023-02-01T04:36:04;99557.16;;;21.57;35.77
31225;BME280;17847;31.524;74.366;2023-02-01T04:38:46;99556.09;;;22.03;35.64
31225;BME280;17847;31.524;74.366;2023-02-01T04:41:35;99555.28;;;22.03;34.76
31225;BME280;17847;31.524;74.366;2023-02-01T04:44:18;99562.75;;;21.67;34.49
31225;BME280;17847;31.524;74.366;2023-02-01T04:47:14;99565.63;;;21.77;35.30
31225;BME280;17847;31.524;74.366;2023-02-01T04:49:56;99579.38;;;21.92;35.12
31225;BME280;17847;31.524;74.366;2023-02-01T04:52:46;99576.75;;;21.81;34.68
31225;BME280;17847;31.524;74.366;2023-02-01T04:55:29;99588.38;;;21.98;35.29
31225;BME280;17847;31.524;74.366;2023-02-01T04:58:18;99577.97;;;21.90;34.63
31225;BME280;17847;31.524;74.366;2023-02-01T05:01:03;99578.00;;;21.62;33.85
31225;BME280;17847;31.524;74.366;2023-02-01T05:03:57;99585.38;;;21.94;34.80
31225;BME280;17847;31.524;74.366;2023-02-01T05:06:39;99588.75;;;22.40;33.86
31225;BME280;17847;31.524;74.366;2023-02-01T05:09:27;99581.94;;;21.71;33.13
31225;BME280;17847;31.524;74.366;2023-02-01T05:12:10;99590.22;;;21.81;33.45
31225;BME280;17847;31.524;74.366;2023-02-01T05:15:25;99586.19;;;21.67;36.31
31225;BME280;17847;31.524;74.366;2023-02-01T05:18:07;99600.22;;;21.52;33.27
31225;BME280;17847;31.524;74.366;2023-02-01T05:20:55;99588.91;;;21.83;33.80
31225;BME280;17847;31.524;74.366;2023-02-01T05:23:45;99591.84;;;21.82;33.22
31225;BME280;17847;31.524;74.366;2023-02-01T05:26:46;99587.56;;;21.52;32.02
31225;BME280;17847;31.524;74.366;2023-02-01T05:29:36;99594.72;;;21.75;34.21
31225;BME280;17847;31.524;74.366;2023-02-01T05:32:26;99595.94;;;21.84;33.51
31225;BME280;17847;31.524;74.366;2023-02-01T05:35:15;99591.03;;;21.36;32.98
31225;BME280;17847;31.524;74.366;2023-02-01T05:37:56;99584.13;;;21.57;34.34
31225;BME280;17847;31.524;74.366;2023-02-01T05:40:46;99584.97;;;21.91;33.15
31225;BME280;17847;31.524;74.366;2023-02-01T05:43:27;99584.66;;;21.87;33.11
31225;BME280;17847;31.524;74.366;2023-02-01T05:46:16;99577.34;;;21.55;34.72
31225;BME280;17847;31.524;74.366;2023-02-01T05:48:51;99565.06;;;21.47;31.98
31225;BME280;17847;31.524;74.366;2023-02-01T05:51:47;99558.22;;;21.56;33.10
31225;BME280;17847;31.524;74.366;2023-02-01T05:54:22;99552.81;;;22.01;31.53
31225;BME280;17847;31.524;74.366;2023-02-01T05:57:18;99543.47;;;22.09;33.79
31225;BME280;17847;31.524;74.366;2023-02-01T05:59:59;99545.84;;;21.88;32.22
31225;BME280;17847;31.524;74.366;2023-02-01T06:02:49;99544.63;;;22.29;31.95
31225;BME280;17847;31.524;74.366;2023-02-01T06:05:31;99541.19;;;22.17;32.37
31225;BME280;17847;31.524;74.366;2023-02-01T06:08:21;99527.50;;;22.40;32.11
31225;BME280;17847;31.524;74.366;2023-02-01T06:11:05;99522.72;;;22.26;33.97
31225;BME280;17847;31.524;74.366;2023-02-01T06:14:11;99511.22;;;21.97;31.88
31225;BME280;17847;31.524;74.366;2023-02-01T06:16:53;99518.13;;;22.26;34.26
31225;BME280;17847;31.524;74.366;2023-02-01T06:19:42;99508.78;;;22.72;32.08
31225;BME280;17847;31.524;74.366;2023-02-01T06:22:30;99496.38;;;22.98;33.36
31225;BME280;17847;31.524;74.366;2023-02-01T06:25:25;99504.97;;;23.17;31.26
31225;BME280;17847;31.524;74.366;2023-02-01T06:28:06;99497.88;;;22.46;31.97
31225;BME280;17847;31.524;74.366;2023-02-01T06:30:56;99491.47;;;22.13;33.20
31225;BME280;17847;31.524;74.366;2023-02-01T06:33:39;99478.06;;;22.18;33.93
31225;BME280;17847;31.524;74.366;2023-02-01T06:36:29;99465.59;;;22.12;33.92
31225;BME280;17847;31.524;74.366;2023-02-01T06:39:11;99458.09;;;21.98;31.87
31225;BME280;17847;31.524;74.366;2023-02-01T06:42:04;99452.09;;;21.79;31.92
31225;BME280;17847;31.524;74.366;2023-02-01T06:44:39;99449.84;;;22.26;32.58
31225;BME280;17847;31.524;74.366;2023-02-01T06:47:35;99448.56;;;22.12;34.03
31225;BME280;17847;31.524;74.366;2023-02-01T06:50:17;99442.13;;;21.96;33.29
31225;BME280;17847;31.524;74.366;2023-02-01T06:53:08;99438.53;;;21.90;33.85
31225;BME280;17847;31.524;74.366;2023-02-01T06:55:59;99428.00;;;21.89;34.68
31225;BME280;17847;31.524;74.366;2023-02-01T06:58:49;99422.88;;;22.48;34.45
31225;BME280;17847;31.524;74.366;2023-02-01T07:01:26;99414.63;;;22.16;33.76
31225;BME280;17847;31.524;74.366;2023-02-01T07:04:22;99388.56;;;22.26;34.22
31225;BME280;17847;31.524;74.366;2023-02-01T07:07:03;99382.31;;;21.99;32.85
31225;BME280;17847;31.524;74.366;2023-02-01T07:09:52;99376.22;;;21.92;33.65
31225;BME280;17847;31.524;74.366;2023-02-01T07:12:34;99373.41;;;22.20;34.02
31225;BME280;17847;31.524;74.366;2023-02-01T07:15:24;99381.81;;;22.02;31.72
31225;BME280;17847;31.524;74.366;2023-02-01T07:18:05;99384.25;;;22.25;32.25
31225;BME280;17847;31.524;74.366;2023-02-01T07:20:54;99387.09;;;22.62;33.33
31225;BME280;17847;31.524;74.366;2023-02-01T07:23:43;99391.66;;;22.57;33.59
31225;BME280;17847;31.524;74.366;2023-02-01T07:26:25;99394.88;;;22.80;33.58
31225;BME280;17847;31.524;74.366;2023-02-01T07:29:14;99402.47;;;23.10;35.13
31225;BME280;17847;31.524;74.366;2023-02-01T07:31:56;99398.91;;;23.05;33.28
31225;BME280;17847;31.524;74.366;2023-02-01T07:34:45;99392.16;;;23.07;33.60
31225;BME280;17847;31.524;74.366;2023-02-01T07:37:27;99398.50;;;22.91;32.77
31225;BME280;17847;31.524;74.366;2023-02-01T07:40:16;99401.19;;;22.64;33.42
31225;BME280;17847;31.524;74.366;2023-02-01T07:42:58;99390.00;;;22.77;33.90
31225;BME280;17847;31.524;74.366;2023-02-01T07:45:53;99392.19;;;22.59;32.70
31225;BME280;17847;31.524;74.366;2023-02-01T07:48:37;99387.78;;;22.48;34.41
31225;BME280;17847;31.524;74.366;2023-02-01T07:51:25;99382.56;;;22.19;34.80
31225;BME280;17847;31.524;74.366;2023-02-01T07:54:07;99374.53;;;22.03;35.75
31225;BME280;17847;31.524;74.366;2023-02-01T07:56:56;99363.16;;;21.62;35.13
31225;BME280;17847;31.524;74.366;2023-02-01T07:59:38;99365.00;;;21.78;35.37
31225;BME280;17847;31.524;74.366;2023-02-01T08:02:48;99353.50;;;22.05;34.99
31225;BME280;17847;31.524;74.366;2023-02-01T08:05:30;99346.84;;;22.34;35.83
31225;BME280;17847;31.524;74.366;2023-02-01T08:08:19;99337.53;;;22.47;35.88
31225;BME280;17847;31.524;74.366;2023-02-01T08:11:03;99331.13;;;22.26;33.84
31225;BME280;17847;31.524;74.366;2023-02-01T08:13:52;99330.28;;;22.25;34.79
31225;BME280;17847;31.524;74.366;2023-02-01T08:16:34;99322.41;;;22.46;35.74
31225;BME280;17847;31.524;74.366;2023-02-01T08:19:22;99324.38;;;22.28;34.96
31225;BME280;17847;31.524;74.366;2023-02-01T08:22:11;99318.78;;;22.62;35.56
31225;BME280;17847;31.524;74.366;2023-02-01T08:24:53;99322.06;;;22.15;34.65
31225;BME280;17847;31.524;74.366;2023-02-01T08:27:49;99312.47;;;22.24;36.41
31225;BME280;17847;31.524;74.366;2023-02-01T08:30:47;99311.09;;;22.00;36.49
31225;BME280;17847;31.524;74.366;2023-02-01T08:33:29;99302.38;;;22.15;36.38
31225;BME280;17847;31.524;74.366;2023-02-01T08:36:22;99296.81;;;22.26;36.99
31225;BME280;17847;31.524;74.366;2023-02-01T08:39:05;99285.31;;;22.36;38.17
31225;BME280;17847;31.524;74.366;2023-02-01T08:41:54;99283.72;;;22.13;35.27
31225;BME280;17847;31.524;74.366;2023-02-01T08:44:54;99285.47;;;22.24;36.49
31225;BME280;17847;31.524;74.366;2023-02-01T08:47:44;99279.28;;;22.02;37.42
31225;BME280;17847;31.524;74.366;2023-02-01T08:50:26;99268.16;;;22.20;37.57
31225;BME280;17847;31.524;74.366;2023-02-01T08:53:15;99263.94;;;22.29;36.48
31225;BME280;17847;31.524;74.366;2023-02-01T08:55:57;99259.31;;;22.25;37.31
31225;BME280;17847;31.524;74.366;2023-02-01T08:58:46;99262.13;;;22.40;37.28
31225;BME280;17847;31.524;74.366;2023-02-01T09:01:29;99258.72;;;22.23;37.05
31225;BME280;17847;31.524;74.366;2023-02-01T09:04:18;99260.13;;;22.25;36.27
31225;BME280;17847;31.524;74.366;2023-02-01T09:07:00;99256.97;;;22.33;37.39
31225;BME280;17847;31.524;74.366;2023-02-01T09:09:49;99263.25;;;22.39;36.16
31225;BME280;17847;31.524;74.366;2023-02-01T09:12:32;99258.56;;;22.29;35.04
31225;BME280;17847;31.524;74.366;2023-02-01T09:15:22;99259.78;;;22.17;35.10
31225;BME280;17847;31.524;74.366;2023-02-01T09:18:04;99248.88;;;22.07;36.42
31225;BME280;17847;31.524;74.366;2023-02-01T09:20:53;99250.44;;;22.03;35.22
31225;BME280;17847;31.524;74.366;2023-02-01T09:23:41;99249.16;;;22.10;37.19
31225;BME280;17847;31.524;74.366;2023-02-01T09:26:37;99251.75;;;22.00;36.44
31225;BME280;17847;31.524;74.366;2023-02-01T09:29:19;99246.47;;;21.88;36.61
31225;BME280;17847;31.524;74.366;2023-02-01T09:32:08;99237.25;;;21.84;36.51
31225;BME280;17847;31.524;74.366;2023-02-01T09:34:52;99238.88;;;21.85;38.72
31225;BME280;17847;31.524;74.366;2023-02-01T09:37:41;99224.66;;;21.90;37.99
31225;BME280;17847;31.524;74.366;2023-02-01T09:40:23;99226.47;;;21.63;36.93
31225;BME280;17847;31.524;74.366;2023-02-01T09:43:41;99223.72;;;21.58;37.45
31225;BME280;17847;31.524;74.366;2023-02-01T09:46:27;99220.13;;;21.52;37.37
31225;BME280;17847;31.524;74.366;2023-02-01T09:49:19;99216.16;;;21.55;38.29
31225;BME280;17847;31.524;74.366;2023-02-01T09:52:06;99222.75;;;21.69;59.28
31225;BME280;17847;31.524;74.366;2023-02-01T09:55:00;99210.00;;;21.37;46.23
31225;BME280;17847;31.524;74.366;2023-02-01T09:57:49;99202.53;;;21.06;41.46
31225;BME280;17847;31.524;74.366;2023-02-01T10:00:53;99201.31;;;20.97;42.73
31225;BME280;17847;31.524;74.366;2023-02-01T10:03:36;99206.78;;;20.85;43.43
31225;BME280;17847;31.524;74.366;2023-02-01T10:06:42;99201.28;;;20.75;43.56
31225;BME280;17847;31.524;74.366;2023-02-01T10:09:49;99198.19;;;20.67;42.73
31225;BME280;17847;31.524;74.366;2023-02-01T10:21:34;99198.66;;;20.63;41.77
31225;BME280;17847;31.524;74.366;2023-02-01T10:30:25;99195.88;;;20.58;41.02
31225;BME280;17847;31.524;74.366;2023-02-01T10:36:21;99207.88;;;20.51;41.84
31225;BME280;17847;31.524;74.366;2023-02-01T10:39:05;99200.13;;;20.54;40.34
31225;BME280;17847;31.524;74.366;2023-02-01T10:41:56;99202.66;;;20.61;40.59
31225;BME280;17847;31.524;74.366;2023-02-01T10:44:42;99205.09;;;20.62;40.78
31225;BME280;17847;31.524;74.366;2023-02-01T10:47:32;99186.59;;;20.66;40.51
31225;BME280;17847;31.524;74.366;2023-02-01T10:50:34;99196.53;;;20.66;40.99
31225;BME280;17847;31.524;74.366;2023-02-01T10:56:26;99193.84;;;20.66;42.23
31225;BME280;17847;31.524;74.366;2023-02-01T10:59:19;99192.22;;;20.65;41.21
31225;BME280;17847;31.524;74.366;2023-02-01T11:02:24;99191.06;;;20.60;41.09
31225;BME280;17847;31.524;74.366;2023-02-01T11:05:14;99182.59;;;20.52;41.19
31225;BME280;17847;31.524;74.366;2023-02-01T11:07:57;99183.66;;;20.51;41.72
31225;BME280;17847;31.524;74.366;2023-02-01T11:10:46;99185.34;;;20.40;41.12
31225;BME280;17847;31.524;74.366;2023-02-01T11:13:32;99186.44;;;20.28;42.48
31225;BME280;17847;31.524;74.366;2023-02-01T11:16:21;99181.34;;;20.26;43.27
31225;BME280;17847;31.524;74.366;2023-02-01T11:19:14;99184.50;;;20.23;42.81
31225;BME280;17847;31.524;74.366;2023-02-01T11:22:04;99182.00;;;20.05;42.25
31225;BME280;17847;31.524;74.366;2023-02-01T11:25:01;99180.28;;;19.82;42.60
31225;BME280;17847;31.524;74.366;2023-02-01T11:27:51;99191.50;;;19.79;42.78
31225;BME280;17847;31.524;74.366;2023-02-01T11:30:44;99191.38;;;19.74;42.59
31225;BME280;17847;31.524;74.366;2023-02-01T11:33:31;99189.41;;;19.69;44.18
31225;BME280;17847;31.524;74.366;2023-02-01T11:36:29;99180.91;;;19.61;44.80
31225;BME280;17847;31.524;74.366;2023-02-01T11:42:05;99193.00;;;19.35;46.47
31225;BME280;17847;31.524;74.366;2023-02-01T11:45:17;99191.72;;;19.38;46.81
31225;BME280;17847;31.524;74.366;2023-02-01T11:48:15;99186.91;;;19.40;46.31
31225;BME280;17847;31.524;74.366;2023-02-01T11:51:21;99192.88;;;19.42;46.13
31225;BME280;17847;31.524;74.366;2023-02-01T11:54:35;99191.06;;;19.19;44.27
31225;BME280;17847;31.524;74.366;2023-02-01T11:57:39;99190.34;;;19.12;44.97
31225;BME280;17847;31.524;74.366;2023-02-01T12:06:54;99205.91;;;18.98;46.22
31225;BME280;17847;31.524;74.366;2023-02-01T12:12:44;99215.81;;;18.86;46.68
31225;BME280;17847;31.524;74.366;2023-02-01T12:22:11;99210.81;;;18.66;47.93
31225;BME280;17847;31.524;74.366;2023-02-01T12:25:37;99210.09;;;18.71;49.40
31225;BME280;17847;31.524;74.366;2023-02-01T12:31:21;99211.72;;;18.60;50.35
31225;BME280;17847;31.524;74.366;2023-02-01T12:40:19;99209.16;;;18.54;51.55
31225;BME280;17847;31.524;74.366;2023-02-01T12:43:20;99206.66;;;18.40;51.34
31225;BME280;17847;31.524;74.366;2023-02-01T12:49:00;99207.06;;;18.26;50.48
31225;BME280;17847;31.524;74.366;2023-02-01T12:51:40;99204.59;;;18.13;51.71
31225;BME280;17847;31.524;74.366;2023-02-01T12:54:50;99211.75;;;18.19;53.33
31225;BME280;17847;31.524;74.366;2023-02-01T12:57:38;99209.75;;;18.14;54.02
31225;BME280;17847;31.524;74.366;2023-02-01T13:00:52;99218.25;;;17.93;53.98
31225;BME280;17847;31.524;74.366;2023-02-01T13:04:57;99209.16;;;17.82;54.31
31225;BME280;17847;31.524;74.366;2023-02-01T13:07:32;99226.63;;;17.85;55.70
31225;BME280;17847;31.524;74.366;2023-02-01T13:13:35;99236.84;;;17.76;56.33
31225;BME280;17847;31.524;74.366;2023-02-01T13:16:37;99241.53;;;17.63;57.48
31225;BME280;17847;31.524;74.366;2023-02-01T13:28:25;99262.16;;;17.62;56.41
31225;BME280;17847;31.524;74.366;2023-02-01T13:37:20;99261.38;;;17.55;57.71
31225;BME280;17847;31.524;74.366;2023-02-01T13:40:18;99256.91;;;17.49;56.71
31225;BME280;17847;31.524;74.366;2023-02-01T13:46:05;99261.69;;;17.47;56.87
31225;BME280;17847;31.524;74.366;2023-02-01T13:49:00;99262.19;;;17.37;55.94
31225;BME280;17847;31.524;74.366;2023-02-01T13:51:45;99264.41;;;17.22;55.59
31225;BME280;17847;31.524;74.366;2023-02-01T13:54:37;99268.38;;;17.38;56.41
31225;BME280;17847;31.524;74.366;2023-02-01T13:57:37;99265.34;;;17.34;56.46
31225;BME280;17847;31.524;74.366;2023-02-01T14:03:16;99265.59;;;17.08;56.18
31225;BME280;17847;31.524;74.366;2023-02-01T14:06:18;99273.22;;;17.29;57.34
31225;BME280;17847;31.524;74.366;2023-02-01T14:09:19;99293.69;;;17.17;57.75
31225;BME280;17847;31.524;74.366;2023-02-01T14:12:42;99298.75;;;17.07;57.29
31225;BME280;17847;31.524;74.366;2023-02-01T14:15:27;99296.50;;;17.04;57.23
31225;BME280;17847;31.524;74.366;2023-02-01T14:21:33;99288.75;;;16.96;59.09
31225;BME280;17847;31.524;74.366;2023-02-01T14:24:28;99285.75;;;16.86;59.36
31225;BME280;17847;31.524;74.366;2023-02-01T14:27:27;99305.78;;;16.77;60.30
31225;BME280;17847;31.524;74.366;2023-02-01T14:30:15;99297.88;;;16.64;61.72
31225;BME280;17847;31.524;74.366;2023-02-01T14:33:25;99315.38;;;16.59;61.35
31225;BME280;17847;31.524;74.366;2023-02-01T14:36:11;99312.63;;;16.35;61.80
31225;BME280;17847;31.524;74.366;2023-02-01T14:39:17;99323.94;;;16.30;60.96
31225;BME280;17847;31.524;74.366;2023-02-01T14:42:22;99327.50;;;16.24;60.80
31225;BME280;17847;31.524;74.366;2023-02-01T14:50:57;99336.94;;;16.27;59.56
31225;BME280;17847;31.524;74.366;2023-02-01T14:53:42;99332.88;;;16.11;59.38
31225;BME280;17847;31.524;74.366;2023-02-01T14:56:32;99337.38;;;16.24;60.19
31225;BME280;17847;31.524;74.366;2023-02-01T14:59:15;99330.81;;;16.20;59.83
31225;BME280;17847;31.524;74.366;2023-02-01T15:02:25;99311.09;;;16.14;59.43
31225;BME280;17847;31.524;74.366;2023-02-01T15:05:27;99319.69;;;16.23;60.82
31225;BME280;17847;31.524;74.366;2023-02-01T15:08:23;99315.03;;;16.05;58.96
31225;BME280;17847;31.524;74.366;2023-02-01T15:11:11;99315.66;;;16.00;59.34
31225;BME280;17847;31.524;74.366;2023-02-01T15:14:02;99316.44;;;16.07;59.70
31225;BME280;17847;31.524;74.366;2023-02-01T15:16:44;99322.03;;;16.06;59.07
31225;BME280;17847;31.524;74.366;2023-02-01T15:19:38;99323.66;;;16.07;59.12
31225;BME280;17847;31.524;74.366;2023-02-01T15:22:20;99323.00;;;16.18;60.51
31225;BME280;17847;31.524;74.366;2023-02-01T15:25:21;99325.47;;;16.20;60.80
31225;BME280;17847;31.524;74.366;2023-02-01T15:28:04;99328.53;;;16.16;59.52
31225;BME280;17847;31.524;74.366;2023-02-01T15:31:02;99329.78;;;16.14;59.65
31225;BME280;17847;31.524;74.366;2023-02-01T15:33:56;99327.56;;;16.04;59.29
31225;BME280;17847;31.524;74.366;2023-02-01T15:36:47;99336.59;;;16.10;60.94
31225;BME280;17847;31.524;74.366;2023-02-01T15:39:36;99326.94;;;16.09;60.68
31225;BME280;17847;31.524;74.366;2023-02-01T15:42:26;99335.38;;;16.06;61.04
31225;BME280;17847;31.524;74.366;2023-02-01T15:45:19;99337.06;;;15.94;62.18
31225;BME280;17847;31.524;74.366;2023-02-01T15:48:21;99329.69;;;15.89;61.35
31225;BME280;17847;31.524;74.366;2023-02-01T15:51:10;99331.31;;;15.90;60.68
31225;BME280;17847;31.524;74.366;2023-02-01T15:54:05;99331.16;;;15.79;63.12
31225;BME280;17847;31.524;74.366;2023-02-01T15:56:50;99330.56;;;15.70;62.76
31225;BME280;17847;31.524;74.366;2023-02-01T15:59:47;99331.41;;;15.64;62.51
31225;BME280;17847;31.524;74.366;2023-02-01T16:02:51;99330.81;;;15.62;63.51
31225;BME280;17847;31.524;74.366;2023-02-01T16:05:42;99322.41;;;15.52;63.25
31225;BME280;17847;31.524;74.366;2023-02-01T16:08:29;99321.97;;;15.42;63.33
31225;BME280;17847;31.524;74.366;2023-02-01T16:11:30;99330.41;;;15.32;63.08
31225;BME280;17847;31.524;74.366;2023-02-01T16:14:12;99316.88;;;15.34;63.82
31225;BME280;17847;31.524;74.366;2023-02-01T16:17:01;99310.69;;;15.33;64.03
31225;BME280;17847;31.524;74.366;2023-02-01T16:19:44;99311.53;;;15.20;63.00
31225;BME280;17847;31.524;74.366;2023-02-01T16:22:32;99309.31;;;15.17;64.59
31225;BME280;17847;31.524;74.366;2023-02-01T16:25:22;99314.22;;;15.14;63.88
31225;BME280;17847;31.524;74.366;2023-02-01T16:28:04;99312.56;;;15.06;63.25
31225;BME280;17847;31.524;74.366;2023-02-01T16:30:54;99311.34;;;15.02;64.50
31225;BME280;17847;31.524;74.366;2023-02-01T16:33:37;99313.59;;;15.05;65.63
31225;BME280;17847;31.524;74.366;2023-02-01T16:36:28;99304.38;;;15.01;63.65
31225;BME280;17847;31.524;74.366;2023-02-01T16:39:13;99297.38;;;15.00;63.98
31225;BME280;17847;31.524;74.366;2023-02-01T16:42:12;99298.22;;;14.88;64.81
31225;BME280;17847;31.524;74.366;2023-02-01T16:44:54;99292.25;;;14.79;65.08
31225;BME280;17847;31.524;74.366;2023-02-01T16:47:49;99290.44;;;14.79;65.25